Time;durP1;ratioP1;P1;durP2;ratioP2;P2;SDS_P1;SDS_P2;PMS_P1;PMS_P2;Temp;Humidity;BMP_temperature;BMP_pressure;BME280_temperature;BME280_humidity;BME280_pressure;Samples;Min_cycle;Max_cycle;Signal;HPM_P1;HPM_P2
2021/11/09 00:02:07;;;;;;;32.80;8.98;;;9.30;99.90;;;6.69;100.00;101479.63;5049946;28;20080;-84
2021/11/09 00:04:37;;;;;;;27.67;7.63;;;9.30;99.90;;;6.65;100.00;101484.44;5049798;28;20153;-84
2021/11/09 00:07:11;;;;;;;29.25;7.65;;;9.30;99.90;;;6.65;100.00;101474.47;5049734;28;20045;-84
2021/11/09 00:09:56;;;;;;;27.45;7.63;;;9.30;99.90;;;6.70;100.00;101482.22;5069732;28;20093;-84
2021/11/09 00:12:27;;;;;;;23.90;7.65;;;9.20;99.90;;;6.70;100.00;101484.03;5089851;28;20039;-84
2021/11/09 00:14:56;;;;;;;29.77;8.27;;;9.20;99.90;;;6.63;100.00;101489.13;5089643;28;20043;-84
2021/11/09 00:17:24;;;;;;;27.80;7.10;;;9.30;99.90;;;6.66;100.00;101486.16;5075204;28;20470;-84
2021/11/09 00:19:52;;;;;;;30.08;8.40;;;9.20;99.90;;;6.66;100.00;101486.16;5069250;28;20147;-84
2021/11/09 00:22:20;;;;;;;26.40;7.80;;;9.20;99.90;;;6.60;100.00;101492.09;5069288;28;20046;-84
2021/11/09 00:24:50;;;;;;;31.70;8.25;;;9.30;99.90;;;6.60;100.00;101492.09;5069313;28;20107;-83
2021/11/09 00:27:17;;;;;;;20.77;8.38;;;9.20;99.90;;;6.64;100.00;101497.13;5065598;28;20044;-84
2021/11/09 00:29:45;;;;;;;26.08;7.90;;;9.10;99.90;;;6.62;100.00;101496.38;5030628;28;20452;-83
2021/11/09 00:32:13;;;;;;;27.25;8.35;;;9.10;99.90;;;6.62;100.00;101490.97;5049113;28;20577;-84
2021/11/09 00:34:40;;;;;;;39.05;9.30;;;9.10;99.90;;;6.62;100.00;101500.94;5049246;28;20136;-84
2021/11/09 00:37:08;;;;;;;25.73;7.97;;;9.10;99.90;;;6.56;100.00;101502.34;5049142;28;20046;-84
2021/11/09 00:39:37;;;;;;;28.83;8.82;;;9.20;99.90;;;6.55;100.00;101497.94;5048273;28;20083;-84
2021/11/09 00:42:06;;;;;;;32.95;9.43;;;9.10;99.90;;;6.52;100.00;101505.44;5030899;28;20052;-84
2021/11/09 00:44:33;;;;;;;30.23;8.85;;;9.10;99.90;;;6.44;100.00;101503.41;5048052;28;20107;-84
2021/11/09 00:47:02;;;;;;;27.98;8.55;;;9.00;99.90;;;6.46;100.00;101506.84;5048812;28;20076;-84
2021/11/09 00:49:30;;;;;;;23.40;7.93;;;9.00;99.90;;;6.42;100.00;101505.41;5047993;28;20135;-84
2021/11/09 00:51:57;;;;;;;26.60;8.43;;;9.00;99.90;;;6.41;100.00;101506.38;5048830;28;20088;-84
2021/11/09 00:54:24;;;;;;;31.90;8.35;;;9.00;99.90;;;6.35;100.00;101509.63;5048631;28;20076;-84
2021/11/09 00:56:52;;;;;;;29.80;8.18;;;9.00;99.90;;;6.32;100.00;101505.34;5048649;28;20045;-84
2021/11/09 00:59:21;;;;;;;27.85;8.20;;;8.90;99.90;;;6.35;100.00;101501.50;5047804;28;20044;-83
2021/11/09 01:01:48;;;;;;;25.73;8.30;;;8.90;99.90;;;6.34;100.00;101499.78;5048729;28;20107;-84
2021/11/09 01:04:15;;;;;;;27.05;8.15;;;8.90;99.90;;;6.35;100.00;101509.63;5048499;28;20052;-84
2021/11/09 01:06:43;;;;;;;29.15;7.68;;;8.90;99.90;;;6.38;100.00;101510.22;5048676;28;20051;-84
2021/11/09 01:09:10;;;;;;;25.67;9.07;;;8.90;99.90;;;6.33;100.00;101506.19;5060315;28;20048;-84
2021/11/09 01:11:37;;;;;;;33.03;9.00;;;8.90;99.90;;;6.34;100.00;101513.28;5070014;28;20341;-84
2021/11/09 01:14:06;;;;;;;35.10;8.85;;;8.90;99.90;;;6.32;100.00;101512.56;5081425;28;20412;-84
2021/11/09 01:16:36;;;;;;;38.65;9.23;;;8.90;99.90;;;6.26;100.00;101509.44;5068246;28;20512;-84
2021/11/09 01:19:06;;;;;;;33.63;9.95;;;8.90;99.90;;;6.32;100.00;101515.28;5049425;28;20143;-84
2021/11/09 01:21:35;;;;;;;28.55;9.23;;;8.80;99.90;;;6.34;100.00;101514.16;5067542;28;20033;-84
2021/11/09 01:24:03;;;;;;;30.15;8.80;;;8.80;99.90;;;6.31;100.00;101508.16;5068226;28;20461;-84
2021/11/09 01:26:31;;;;;;;38.10;8.82;;;8.80;99.90;;;6.29;100.00;101502.03;5068057;28;20048;-84
2021/11/09 01:29:02;;;;;;;25.00;8.32;;;8.80;99.90;;;6.30;100.00;101506.44;5067312;28;20143;-84
2021/11/09 01:31:30;;;;;;;33.22;8.95;;;8.80;99.90;;;6.25;100.00;101505.00;5068268;28;20102;-84
2021/11/09 01:33:59;;;;;;;30.13;7.97;;;8.80;99.90;;;6.25;100.00;101507.69;5068247;28;20041;-84
2021/11/09 01:36:27;;;;;;;31.15;8.73;;;8.80;99.90;;;6.28;100.00;101489.50;5068177;28;20047;-84
2021/11/09 01:38:55;;;;;;;34.70;9.23;;;8.80;99.90;;;6.29;100.00;101493.94;5067183;28;20052;-84
2021/11/09 01:41:23;;;;;;;32.65;8.82;;;8.80;99.90;;;6.30;100.00;101491.06;5068113;28;20048;-84
2021/11/09 01:43:52;;;;;;;30.30;9.25;;;8.80;99.90;;;6.34;100.00;101486.25;5067922;28;20132;-84
2021/11/09 01:46:19;;;;;;;29.05;9.38;;;8.80;99.90;;;6.34;100.00;101483.56;5068337;28;20066;-84
2021/11/09 01:48:49;;;;;;;28.65;9.15;;;8.80;99.90;;;6.34;100.00;101480.84;5067084;28;20091;-84
2021/11/09 01:51:20;;;;;;;36.10;9.60;;;8.80;99.90;;;6.36;100.00;101486.97;5050538;28;20080;-84
2021/11/09 01:53:53;;;;;;;35.65;9.73;;;8.80;99.90;;;6.30;100.00;101491.06;5047604;28;20585;-84
2021/11/09 01:56:26;;;;;;;35.85;9.88;;;8.80;99.90;;;6.32;100.00;101496.34;5047911;28;20041;-84
2021/11/09 01:58:53;;;;;;;35.92;9.40;;;8.70;99.90;;;6.29;100.00;101496.63;5046936;28;20159;-84
2021/11/09 02:01:21;;;;;;;28.17;8.75;;;8.80;99.90;;;6.26;100.00;101495.03;5047583;28;20503;-84
2021/11/09 02:03:54;;;;;;;24.88;8.82;;;8.70;99.90;;;6.27;100.00;101504.88;5047701;28;20123;-84
2021/11/09 02:06:24;;;;;;;25.30;9.13;;;8.70;99.90;;;6.16;100.00;101505.78;5047801;28;20146;-84
2021/11/09 02:08:57;;;;;;;37.10;9.77;;;8.70;99.90;;;6.13;100.00;101511.47;5054264;28;20040;-83
2021/11/09 02:11:24;;;;;;;34.35;8.70;;;8.70;99.90;;;6.08;100.00;101494.78;5088013;28;20115;-84
2021/11/09 02:13:52;;;;;;;28.83;9.18;;;8.70;99.90;;;6.07;100.00;101514.66;5082543;28;20127;-83
2021/11/09 02:16:19;;;;;;;30.85;8.57;;;8.70;99.90;;;6.02;100.00;101514.22;5062930;28;20155;-83
2021/11/09 02:18:46;;;;;;;33.65;9.20;;;8.70;99.90;;;6.01;100.00;101521.44;5047044;28;20576;-84
2021/11/09 02:21:15;;;;;;;31.40;8.32;;;8.70;99.90;;;5.98;100.00;101512.78;5047690;28;20053;-84
2021/11/09 02:23:46;;;;;;;30.52;9.07;;;8.60;99.90;;;5.98;100.00;101513.63;5047713;28;20513;-84
2021/11/09 02:26:17;;;;;;;23.73;8.60;;;8.60;99.90;;;5.92;100.00;101508.72;5047558;28;20124;-83
2021/11/09 02:28:46;;;;;;;31.17;8.90;;;8.50;99.90;;;5.89;100.00;101508.97;5046678;28;20088;-84
2021/11/09 02:31:13;;;;;;;27.05;8.85;;;8.50;99.90;;;5.91;100.00;101511.53;5047677;28;20098;-84
2021/11/09 02:33:41;;;;;;;28.50;8.73;;;8.50;99.90;;;5.89;100.00;101514.38;5029367;28;20425;-84
2021/11/09 02:36:09;;;;;;;25.27;9.00;;;8.50;99.90;;;5.87;100.00;101521.75;5047586;28;20080;-83
2021/11/09 02:38:37;;;;;;;29.08;8.25;;;8.50;99.90;;;5.86;100.00;101518.19;5046620;28;20148;-84
2021/11/09 02:41:05;;;;;;;28.33;8.85;;;8.50;99.90;;;5.86;100.00;101520.91;5046094;28;20049;-84
2021/11/09 02:43:34;;;;;;;27.60;9.13;;;8.40;99.90;;;5.83;100.00;101531.09;5047482;28;20045;-84
2021/11/09 02:46:26;;;;;;;33.83;9.63;;;8.40;99.90;;;5.86;100.00;101530.81;5047560;28;20512;-84
2021/11/09 02:49:01;;;;;;;35.20;9.55;;;8.40;99.90;;;5.85;100.00;101527.28;5046637;28;20080;-84
2021/11/09 02:51:33;;;;;;;34.53;9.80;;;8.40;99.90;;;5.88;100.00;101529.72;5050918;28;20044;-83
2021/11/09 02:54:06;;;;;;;37.22;10.85;;;8.40;99.90;;;5.87;100.00;101541.50;5067500;28;20052;-84
2021/11/09 02:56:40;;;;;;;29.08;9.38;;;8.40;99.90;;;5.81;100.00;101531.22;5067429;28;20045;-84
2021/11/09 02:59:17;;;;;;;28.25;9.70;;;8.30;99.90;;;5.81;100.00;101539.31;5066451;28;20040;-84
2021/11/09 03:01:50;;;;;;;33.55;10.05;;;8.30;99.90;;;5.80;100.00;101536.75;5067316;28;20044;-84
2021/11/09 03:04:27;;;;;;;37.10;9.82;;;8.30;99.90;;;5.76;100.00;101536.16;5067136;28;20055;-84
2021/11/09 03:06:58;;;;;;;29.95;9.13;;;8.30;99.90;;;5.75;100.00;101520.94;5068948;28;20044;-84
2021/11/09 03:09:39;;;;;;;29.30;8.88;;;8.30;99.90;;;5.74;100.00;101521.91;5078408;28;20047;-84
2021/11/09 03:12:09;;;;;;;36.33;10.02;;;8.30;99.90;;;5.72;100.00;101521.19;5090927;28;20052;-84
2021/11/09 03:14:38;;;;;;;28.33;9.20;;;8.30;99.90;;;5.72;100.00;101534.69;5090838;28;20062;-84
2021/11/09 03:17:13;;;;;;;32.22;9.50;;;8.30;99.90;;;5.73;100.00;101528.31;5079730;28;20041;-83
2021/11/09 03:19:45;;;;;;;37.22;9.90;;;8.30;99.90;;;5.73;100.00;101531.00;5070084;28;20078;-84
2021/11/09 03:44:42;;;;;;;42.58;9.48;;;8.20;99.90;;;5.66;100.00;101551.41;5050083;28;20071;-84
2021/11/09 03:47:14;;;;;;;27.05;8.85;;;8.20;99.90;;;5.60;100.00;101552.78;5050212;28;20052;-84
2021/11/09 03:49:43;;;;;;;33.85;9.50;;;8.20;99.90;;;5.61;100.00;101559.03;5031216;28;20053;-84
2021/11/09 03:52:17;;;;;;;33.85;10.65;;;8.20;99.90;;;5.58;100.00;101559.25;5059304;28;20425;-83
2021/11/09 03:54:48;;;;;;;31.10;9.80;;;8.10;99.90;;;5.57;100.00;101562.97;5051774;28;20049;-83
2021/11/09 03:57:21;;;;;;;27.92;8.98;;;8.10;99.90;;;5.54;100.00;101555.09;5052011;28;20076;-84
2021/11/09 03:59:57;;;;;;;25.50;8.60;;;8.10;99.90;;;5.49;100.00;101559.03;5069636;28;20132;-84
2021/11/09 04:02:30;;;;;;;32.92;9.32;;;8.10;99.90;;;5.44;100.00;101547.75;5069910;28;20111;-83
2021/11/09 04:04:59;;;;;;;32.80;9.73;;;8.10;99.90;;;5.40;100.00;101559.78;5069686;28;20532;-84
2021/11/09 04:07:33;;;;;;;33.47;9.30;;;8.00;99.90;;;5.36;100.00;101552.94;5069169;28;20054;-84
2021/11/09 04:10:14;;;;;;;30.88;9.30;;;8.00;99.90;;;5.37;100.00;101556.47;5082945;28;20126;-84
2021/11/09 04:12:52;;;;;;;22.55;8.10;;;8.00;99.90;;;5.30;100.00;101558.84;5089917;28;20097;-84
2021/11/09 04:15:48;;;;;;;24.67;7.80;;;8.00;99.90;;;5.27;100.00;101559.06;5089734;28;20044;-84
2021/11/09 04:18:27;;;;;;;16.85;7.65;;;7.90;99.90;;;5.23;100.00;101555.75;5048633;28;20208;-84
2021/11/09 04:21:02;;;;;;;26.15;7.93;;;8.00;99.90;;;5.23;100.00;101558.47;5049474;28;20068;-83
2021/11/09 04:23:54;;;;;;;26.95;9.02;;;7.90;99.90;;;5.22;100.00;101559.47;5049383;28;20098;-85
2021/11/09 04:32:12;;;;;;;25.98;8.57;;;7.80;99.90;;;5.22;100.00;101553.22;5049381;28;20041;-90
2021/11/09 05:02:45;;;;;;;26.67;9.27;;;7.70;99.90;;;5.06;100.00;101562.56;5045613;28;20041;-86
2021/11/09 05:10:45;;;;;;;30.08;9.25;;;7.60;99.90;;;4.97;100.00;101565.97;5064544;28;20048;-86
2021/11/09 05:13:12;;;;;;;32.05;9.50;;;7.60;99.90;;;4.94;100.00;101568.91;5065222;28;20040;-86
2021/11/09 05:15:40;;;;;;;30.40;9.98;;;7.70;99.90;;;4.90;100.00;101565.59;5064923;28;20068;-87
2021/11/09 05:18:07;;;;;;;25.98;8.77;;;7.60;99.90;;;4.87;100.00;101557.75;5063979;28;20047;-86
2021/11/09 05:20:35;;;;;;;31.67;9.25;;;7.50;99.90;;;4.87;100.00;101564.97;5064703;28;20080;-86
2021/11/09 05:23:05;;;;;;;19.65;9.38;;;7.50;99.90;;;4.87;100.00;101567.66;5063337;28;20098;-86
2021/11/09 05:25:33;;;;;;;21.40;7.82;;;7.50;99.90;;;4.84;100.00;101581.41;5064910;28;20057;-86
2021/11/09 05:28:00;;;;;;;24.35;8.70;;;7.50;99.90;;;4.79;100.00;101572.81;5093350;22;20040;-79
2021/11/09 05:30:28;;;;;;;32.28;8.57;;;7.50;99.90;;;4.74;100.00;101583.97;5025488;28;20053;-78
2021/11/09 05:32:59;;;;;;;22.85;8.35;;;7.40;99.90;;;4.66;100.00;101583.69;5028515;28;20037;-79
2021/11/09 05:35:26;;;;;;;16.08;7.65;;;7.40;99.90;;;4.62;100.00;101577.69;5044122;28;20045;-79
2021/11/09 05:37:56;;;;;;;26.73;9.07;;;7.40;99.90;;;4.58;100.00;101587.00;5043756;28;20064;-79
2021/11/09 05:40:32;;;;;;;23.90;8.50;;;7.40;99.90;;;4.55;100.00;101584.56;5044812;28;20120;-79
2021/11/09 05:43:01;;;;;;;20.65;8.57;;;7.30;99.90;;;4.55;100.00;101587.25;5044719;28;20051;-79
2021/11/09 05:45:30;;;;;;;18.67;8.68;;;7.30;99.90;;;4.59;100.00;101583.34;5044683;28;20049;-79
2021/11/09 05:47:58;;;;;;;29.38;8.70;;;7.30;99.90;;;4.61;100.00;101585.91;5043524;28;20076;-79
2021/11/09 05:50:26;;;;;;;28.15;9.55;;;7.30;99.90;;;4.62;100.00;101580.38;5047111;28;20042;-78
2021/11/09 05:52:54;;;;;;;27.10;9.85;;;7.20;99.90;;;4.60;100.00;101587.72;5042631;28;20077;-77
2021/11/09 05:55:21;;;;;;;32.53;9.60;;;7.20;99.90;;;4.64;100.00;101593.75;5044162;28;20661;-77
2021/11/09 05:57:50;;;;;;;27.42;9.70;;;7.20;99.90;;;4.61;100.00;101602.09;5040489;28;20540;-77
2021/11/09 06:00:18;;;;;;;29.40;9.85;;;7.30;99.90;;;4.62;100.00;101596.56;5043012;28;20440;-78
2021/11/09 06:02:45;;;;;;;24.60;8.88;;;7.20;99.90;;;4.61;100.00;101608.34;5031032;28;20061;-77
2021/11/09 06:05:12;;;;;;;28.85;8.95;;;7.20;99.90;;;4.59;100.00;101610.28;5030566;28;20045;-77
2021/11/09 06:07:39;;;;;;;37.45;11.88;;;7.20;99.90;;;4.48;100.00;101608.41;5030204;28;20123;-77
2021/11/09 06:10:08;;;;;;;31.35;12.23;;;7.20;99.90;;;4.43;100.00;101613.28;5013069;28;20132;-77
2021/11/09 06:12:35;;;;;;;25.73;11.13;;;7.10;99.90;;;4.39;100.00;101609.13;5031018;28;20045;-77
2021/11/09 06:15:05;;;;;;;35.10;13.57;;;7.10;99.80;;;4.41;100.00;101612.56;5012911;28;20081;-77
2021/11/09 06:17:33;;;;;;;33.83;14.38;;;7.10;99.90;;;4.44;100.00;101614.19;4997848;28;20226;-77
2021/11/09 06:20:00;;;;;;;37.20;15.20;;;7.10;99.90;;;4.45;100.00;101618.56;5018515;28;20494;-77
2021/11/09 06:22:27;;;;;;;37.90;15.20;;;7.10;99.90;;;4.47;100.00;101616.63;5004400;28;20053;-77
2021/11/09 06:24:55;;;;;;;41.75;15.40;;;7.10;99.90;;;4.49;100.00;101620.06;5030353;28;20096;-77
2021/11/09 06:27:23;;;;;;;33.67;14.40;;;7.00;99.90;;;4.49;100.00;101620.06;5029865;28;20053;-77
2021/11/09 06:29:50;;;;;;;43.45;13.07;;;7.00;99.90;;;4.48;100.00;101627.28;5011998;28;20049;-77
2021/11/09 06:32:19;;;;;;;34.30;13.60;;;7.00;99.90;;;4.46;100.00;101626.53;5030390;28;20125;-77
2021/11/09 06:34:47;;;;;;;31.27;14.38;;;7.00;99.90;;;4.47;100.00;101622.88;5030177;28;20049;-77
2021/11/09 06:37:14;;;;;;;29.92;13.60;;;7.00;99.90;;;4.46;100.00;101623.00;5030364;28;20128;-77
2021/11/09 06:39:41;;;;;;;33.15;12.65;;;7.00;99.90;;;4.45;100.00;101623.97;5029453;28;20127;-77
2021/11/09 06:42:09;;;;;;;29.30;11.65;;;7.00;99.90;;;4.45;100.00;101619.41;5028110;28;20143;-77
2021/11/09 06:44:37;;;;;;;34.38;11.80;;;7.00;99.90;;;4.47;100.00;101625.59;5030120;28;20045;-77
2021/11/09 06:47:04;;;;;;;26.42;11.23;;;7.00;99.90;;;4.44;100.00;101630.34;5030062;28;20073;-77
2021/11/09 06:49:33;;;;;;;34.78;12.23;;;7.00;99.90;;;4.41;100.00;101633.28;5023488;28;20073;-77
2021/11/09 06:52:00;;;;;;;28.23;12.45;;;7.00;99.90;;;4.36;100.00;101635.44;5017172;28;20042;-77
2021/11/09 06:54:28;;;;;;;28.60;11.30;;;7.00;99.90;;;4.36;100.00;101639.03;5026463;28;20132;-77
2021/11/09 06:56:55;;;;;;;27.45;11.13;;;7.00;99.90;;;4.41;100.00;101646.75;5029826;28;20042;-77
2021/11/09 06:59:23;;;;;;;28.27;10.85;;;6.90;99.90;;;4.42;100.00;101649.31;5026006;28;20132;-77
2021/11/09 07:01:51;;;;;;;28.08;10.70;;;7.00;99.90;;;4.43;100.00;101650.19;5029693;28;20045;-78
2021/11/09 07:04:18;;;;;;;20.58;9.80;;;6.90;99.90;;;4.40;100.00;101655.78;5029611;28;20128;-77
2021/11/09 07:06:47;;;;;;;22.15;8.43;;;6.90;99.90;;;4.36;100.00;101651.59;5029469;28;20049;-77
2021/11/09 07:09:15;;;;;;;19.13;8.68;;;6.90;99.90;;;4.36;100.00;101649.81;5025205;28;20140;-77
2021/11/09 07:11:42;;;;;;;28.08;9.93;;;6.90;99.90;;;4.40;100.00;101645.88;5029243;28;20041;-77
2021/11/09 07:14:10;;;;;;;20.80;8.88;;;6.90;99.90;;;4.49;100.00;101653.28;5028467;28;20088;-77
2021/11/09 07:16:40;;;;;;;30.00;10.35;;;6.90;99.90;;;4.52;100.00;101656.72;5029352;28;20120;-78
2021/11/09 07:19:08;;;;;;;24.85;9.68;;;6.90;99.90;;;4.56;100.00;101656.34;5027992;28;20133;-77
2021/11/09 07:21:36;;;;;;;19.85;8.93;;;6.90;99.90;;;4.61;100.00;101667.66;5029080;28;20071;-78
2021/11/09 07:24:06;;;;;;;27.20;8.55;;;7.00;99.90;;;4.64;100.00;101664.69;5029457;28;20047;-77
2021/11/09 07:26:34;;;;;;;22.13;9.15;;;7.00;99.90;;;4.70;100.00;101666.94;5029216;28;20099;-77
2021/11/09 07:29:01;;;;;;;22.38;9.02;;;7.00;99.90;;;4.76;100.00;101664.75;5006675;28;20054;-78
2021/11/09 07:31:32;;;;;;;26.08;9.55;;;7.00;99.90;;;4.80;100.00;101668.94;5029181;28;20401;-77
2021/11/09 07:34:00;;;;;;;30.23;9.95;;;7.00;99.90;;;4.85;100.00;101670.28;5029164;28;20076;-78
2021/11/09 07:36:27;;;;;;;27.58;8.82;;;7.10;99.90;;;4.88;100.00;101661.97;5029100;28;20140;-78
2021/11/09 07:38:56;;;;;;;26.42;9.07;;;7.20;99.90;;;4.94;100.00;101657.94;5026964;28;20056;-78
2021/11/09 07:41:26;;;;;;;27.85;9.82;;;7.10;99.90;;;4.99;100.00;101654.84;5032872;28;20041;-78
2021/11/09 07:43:53;;;;;;;27.98;9.70;;;7.20;99.90;;;5.11;100.00;101656.59;5048800;28;20520;-77
2021/11/09 07:46:21;;;;;;;30.67;10.32;;;7.30;99.90;;;5.20;100.00;101669.38;5048825;28;20045;-77
2021/11/09 07:48:48;;;;;;;31.17;9.85;;;7.30;99.90;;;5.26;100.00;101670.72;5042758;28;20061;-78
2021/11/09 07:51:15;;;;;;;30.15;9.82;;;7.30;99.90;;;5.33;100.00;101663.88;5027089;28;20051;-78
2021/11/09 07:53:44;;;;;;;21.42;9.18;;;7.40;99.90;;;5.40;100.00;101666.94;5028778;28;20071;-78
2021/11/09 07:56:18;;;;;;;28.05;10.52;;;7.40;99.90;;;5.51;100.00;101666.06;5028899;28;20055;-77
2021/11/09 07:58:54;;;;;;;27.45;9.38;;;7.50;99.90;;;5.54;100.00;101666.69;5025904;28;20572;-78
2021/11/09 08:01:29;;;;;;;32.10;9.95;;;7.50;99.90;;;5.62;100.00;101668.78;5027431;28;20050;-78
2021/11/09 08:04:05;;;;;;;29.10;9.40;;;7.60;99.90;;;5.74;100.00;101667.75;5022779;28;20046;-78
2021/11/09 08:06:44;;;;;;;25.85;10.00;;;7.70;99.90;;;5.85;100.00;101661.50;5008815;28;20057;-78
2021/11/09 08:09:13;;;;;;;33.88;10.50;;;7.70;99.90;;;5.97;100.00;101662.34;5012211;28;20588;-77
2021/11/09 08:11:42;;;;;;;29.65;10.52;;;7.80;99.90;;;6.06;100.00;101657.06;5028479;28;20115;-78
2021/11/09 08:14:11;;;;;;;35.03;9.70;;;7.90;99.90;;;6.16;100.00;101657.13;5028477;28;20041;-78
2021/11/09 08:16:39;;;;;;;37.38;9.90;;;7.90;99.90;;;6.22;100.00;101651.22;5028164;28;20149;-78
2021/11/09 08:19:07;;;;;;;23.58;9.70;;;8.00;99.90;;;6.31;100.00;101656.84;5025223;28;20045;-77
2021/11/09 08:21:36;;;;;;;26.73;9.38;;;8.10;99.90;;;6.40;100.00;101653.38;5023091;28;20065;-78
2021/11/09 08:24:04;;;;;;;28.92;8.98;;;8.10;99.90;;;6.45;100.00;101659.25;5015712;28;20077;-78
2021/11/09 08:26:33;;;;;;;29.42;9.55;;;8.20;99.90;;;6.53;100.00;101658.59;5028155;28;20072;-78
2021/11/09 08:29:03;;;;;;;30.02;8.93;;;8.30;99.90;;;6.61;100.00;101667.78;5026014;28;20425;-78
2021/11/09 08:31:33;;;;;;;26.88;9.05;;;8.40;99.90;;;6.67;100.00;101668.25;5026724;28;20053;-78
2021/11/09 08:34:01;;;;;;;22.13;8.82;;;8.40;99.90;;;6.74;100.00;101661.31;5028198;28;20111;-78
2021/11/09 08:36:29;;;;;;;27.42;8.90;;;8.50;99.90;;;6.77;100.00;101658.34;5028190;28;20139;-78
2021/11/09 08:38:59;;;;;;;20.52;8.13;;;8.50;99.90;;;6.80;100.00;101661.66;5006962;28;20725;-78
2021/11/09 08:41:37;;;;;;;26.45;8.13;;;8.60;99.90;;;6.87;100.00;101661.97;5008166;28;20124;-78
2021/11/09 08:44:08;;;;;;;21.88;8.55;;;8.60;99.90;;;6.93;100.00;101666.88;5008151;28;20506;-78
2021/11/09 08:46:39;;;;;;;21.37;8.20;;;8.70;99.90;;;6.98;100.00;101666.47;5020147;28;20120;-78
2021/11/09 08:49:08;;;;;;;21.73;7.63;;;8.70;99.90;;;7.03;100.00;101666.94;5025916;28;20116;-77
2021/11/09 08:51:37;;;;;;;21.25;7.55;;;8.80;99.90;;;7.09;100.00;101668.25;5028023;28;20098;-78
2021/11/09 08:54:15;;;;;;;22.15;7.72;;;8.80;99.90;;;7.15;100.00;101670.41;5027748;28;20041;-78
2021/11/09 09:05:10;;;;;;;18.15;7.05;;;9.00;99.90;;;7.35;100.00;101672.25;5027793;28;20056;-78
2021/11/09 09:07:38;;;;;;;22.40;7.07;;;9.10;99.90;;;7.39;100.00;101668.28;5027071;28;20107;-79
2021/11/09 09:10:08;;;;;;;20.85;7.00;;;9.20;99.90;;;7.43;100.00;101675.13;5026319;28;20486;-78
2021/11/09 09:12:36;;;;;;;20.52;7.68;;;9.20;99.90;;;7.47;100.00;101680.28;5027913;28;20065;-78
2021/11/09 09:15:07;;;;;;;17.67;6.93;;;9.20;99.90;;;7.49;100.00;101676.44;5027701;28;20127;-79
2021/11/09 09:17:39;;;;;;;19.98;7.00;;;9.30;99.90;;;7.54;100.00;101681.44;5025530;28;20089;-77
2021/11/09 09:20:14;;;;;;;22.40;7.50;;;9.30;99.90;;;7.57;100.00;101676.59;5027312;28;20577;-77
2021/11/09 09:22:45;;;;;;;26.00;7.30;;;9.30;99.90;;;7.61;100.00;101675.34;5017276;28;20093;-78
2021/11/09 09:25:23;;;;;;;16.48;6.53;;;9.40;99.90;;;7.68;100.00;101669.38;5007996;28;20104;-79
2021/11/09 09:28:18;;;;;;;21.00;7.05;;;9.40;99.90;;;7.71;100.00;101678.09;5016356;28;20053;-79
2021/11/09 09:31:10;;;;;;;20.20;7.22;;;9.40;99.90;;;7.77;100.00;101677.56;5008101;28;20042;-79
2021/11/09 09:56:13;;;;;;;18.05;6.43;;;9.80;99.20;;;8.16;100.00;101695.75;4972502;28;20061;-79
2021/11/09 09:58:42;;;;;;;17.00;5.85;;;9.80;99.30;;;8.20;100.00;101700.75;5021613;28;20410;-78
2021/11/09 10:01:10;;;;;;;19.38;5.43;;;9.90;98.60;;;8.24;99.86;101704.03;5031017;28;20061;-77
2021/11/09 10:03:41;;;;;;;17.35;5.70;;;9.90;97.70;;;8.30;98.73;101708.06;5030997;28;20570;-78
2021/11/09 10:06:11;;;;;;;16.85;5.63;;;10.00;97.70;;;8.31;99.24;101690.78;5031092;28;20053;-78
2021/11/09 10:08:47;;;;;;;14.48;5.22;;;10.00;97.80;;;8.34;97.83;101702.22;5030034;28;20045;-77
2021/11/09 10:11:32;;;;;;;14.55;5.38;;;10.00;97.40;;;8.35;98.44;101701.22;5030868;28;20449;-77
2021/11/09 10:14:01;;;;;;;16.70;5.55;;;10.10;97.70;;;8.39;98.79;101708.06;5012727;28;20572;-78
2021/11/09 10:16:30;;;;;;;15.88;5.25;;;10.10;97.70;;;8.41;98.62;101710.63;5024799;28;20117;-79
2021/11/09 10:18:57;;;;;;;17.85;5.38;;;10.10;97.60;;;8.43;98.51;101705.97;5010085;28;20053;-78
2021/11/09 10:21:36;;;;;;;15.15;5.20;;;10.20;97.50;;;8.46;98.53;101704.84;5010801;28;20042;-77
2021/11/09 10:24:04;;;;;;;25.13;5.72;;;10.20;97.50;;;8.53;97.23;101703.25;5010944;28;20099;-77
2021/11/09 10:26:37;;;;;;;15.52;5.20;;;10.20;96.60;;;8.54;97.16;101702.25;5010630;28;20045;-77
2021/11/09 10:29:08;;;;;;;13.52;4.18;;;10.30;97.00;;;8.58;96.01;101709.13;5025404;28;20045;-79
2021/11/09 10:31:42;;;;;;;20.15;5.05;;;10.30;96.50;;;8.61;96.35;101698.84;5027919;28;20046;-79
2021/11/09 10:34:25;;;;;;;14.73;4.70;;;10.30;95.90;;;8.65;94.90;101704.84;5018859;28;20611;-79
2021/11/09 10:37:18;;;;;;;11.77;4.50;;;10.30;95.70;;;8.70;95.81;101694.44;5000430;28;20045;-79
2021/11/09 10:39:48;;;;;;;16.23;4.65;;;10.30;95.70;;;8.73;94.12;101699.53;5018227;28;20059;-79
2021/11/09 10:42:28;;;;;;;15.02;4.30;;;10.40;95.30;;;8.78;93.87;101701.84;4999167;28;20099;-79
2021/11/09 10:44:58;;;;;;;14.15;4.28;;;10.40;94.50;;;8.80;92.23;101708.84;5011556;28;20450;-77
2021/11/09 10:47:29;;;;;;;12.73;3.70;;;10.40;94.70;;;8.81;93.33;101701.53;5016948;28;20051;-79
2021/11/09 10:50:00;;;;;;;12.48;4.75;;;10.50;95.00;;;8.81;93.75;101704.25;4995733;28;20529;-79
2021/11/09 10:52:35;;;;;;;13.00;4.43;;;10.50;94.70;;;8.85;92.70;101707.53;5023187;28;20096;-79
2021/11/09 10:55:09;;;;;;;10.73;3.45;;;10.50;94.00;;;8.89;92.03;101700.81;5020938;28;20056;-79
2021/11/09 10:57:50;;;;;;;13.75;4.13;;;10.50;93.30;;;8.91;90.83;101698.81;5012766;28;20046;-79
2021/11/09 11:06:25;;;;;;;14.82;3.70;;;10.60;92.30;;;8.97;89.80;101692.84;5026874;28;20057;-77
2021/11/09 11:08:55;;;;;;;10.88;3.50;;;10.60;92.50;;;9.00;89.71;101690.69;5028586;28;20057;-77
2021/11/09 11:11:26;;;;;;;11.43;3.80;;;10.70;92.10;;;8.97;90.60;101690.97;5029814;28;20049;-77
2021/11/09 11:13:56;;;;;;;16.27;4.22;;;10.70;92.20;;;9.02;89.46;101681.53;5029671;28;20135;-77
2021/11/09 11:16:26;;;;;;;16.67;4.60;;;10.70;91.00;;;9.07;89.67;101687.38;5024365;28;20461;-79
2021/11/09 11:18:56;;;;;;;12.63;4.25;;;10.80;91.80;;;9.11;87.42;101688.78;4993630;28;20049;-77
2021/11/09 11:21:26;;;;;;;14.13;3.75;;;10.70;90.40;;;9.11;87.65;101678.78;5029305;28;20049;-77
2021/11/09 11:23:57;;;;;;;12.10;4.00;;;10.80;90.30;;;9.10;88.29;101679.81;5029523;28;20045;-77
2021/11/09 11:26:24;;;;;;;14.85;4.10;;;10.80;90.30;;;9.11;88.57;101678.78;5029357;28;20049;-77
2021/11/09 11:28:54;;;;;;;11.68;3.63;;;10.80;90.80;;;9.11;89.01;101670.63;5042086;22;20053;-89
2021/11/09 11:31:22;;;;;;;12.13;4.00;;;10.80;90.70;;;9.14;88.81;101672.22;5051802;28;20045;-89
2021/11/09 11:33:51;;;;;;;15.55;3.92;;;10.90;91.00;;;9.17;88.55;101682.78;5047791;28;20045;-89
2021/11/09 11:36:18;;;;;;;12.25;4.05;;;10.90;90.30;;;9.16;89.25;101670.22;5056360;28;20045;-89
2021/11/09 11:38:49;;;;;;;12.93;3.90;;;10.90;90.80;;;9.15;89.50;101665.78;5046502;28;20099;-89
2021/11/09 11:41:20;;;;;;;11.25;3.47;;;10.90;91.30;;;9.16;89.47;101664.78;5029150;28;20052;-88
2021/11/09 11:43:57;;;;;;;10.60;3.38;;;10.90;91.30;;;9.20;87.80;101660.75;5029250;28;20045;-88
2021/11/09 11:46:55;;;;;;;12.90;3.92;;;10.90;89.90;;;9.25;86.36;101654.88;5027745;28;20099;-90
2021/11/09 11:49:31;;;;;;;9.88;3.30;;;11.00;89.20;;;9.27;86.58;101656.47;5028404;28;20123;-88
2021/11/09 11:52:26;;;;;;;10.90;3.60;;;11.00;89.70;;;9.29;85.93;101648.13;5035193;28;20041;-88
2021/11/09 11:55:05;;;;;;;9.40;3.20;;;11.00;89.00;;;9.29;86.23;101654.44;5047472;28;20531;-89
2021/11/09 11:57:54;;;;;;;8.68;3.70;;;11.00;88.80;;;9.29;87.20;101648.13;5042217;28;20059;-90
2021/11/09 12:00:56;;;;;;;9.50;3.63;;;11.00;89.60;;;9.30;86.80;101649.88;5048280;28;20060;-88
2021/11/09 12:03:41;;;;;;;8.27;3.33;;;11.00;89.40;;;9.30;86.37;101639.00;5016600;28;20143;-86
2021/11/09 12:06:54;;;;;;;11.85;3.92;;;11.10;89.40;;;9.33;85.24;101644.16;5048565;28;20045;-87
2021/11/09 12:09:32;;;;;;;10.02;3.88;;;11.10;88.20;;;9.34;86.25;101635.81;5039953;28;20057;-86